Cannon Air Force Base
KCVS : now visible

Airfield :











YOU CAN JOIN US ON...

 
LOGIN :

Register | Disclaimer

   EN    FR    IT 

 









Legend :    VFR   Marginal VFR   IFR   Intensive IFR   Very Intensive IFR
Visi :
Ceiling :
>= 8 km
>= 3000ft
5 to 8 km
1000 to 3000 ft
1500m to 5 km
500 to 1000 ft
800 to 1500m
200 to 500 ft
< 800m
< 200 ft
Symbols :   Thunderstorms  Fog  Heavy snow  Heavy precipitations  Wind > 20 kt






- Airport Elevation : 4295 ft


KCVS - Cannon Air Force Base

CURRENT METAR :
  • 021804Z AUTO 24011G24KT 10SM CLR 23/M04 A2985 RMK AO2 WSHFT 1749 SLP059 FZRANO $

EXPIRED METARs :
  • 021758Z AUTO 27014KT 10SM CLR 23/M05 A2985 RMK AO2 PK WND 25028/1659 SLP059 T02271053 10227 20073 58006 FZRANO $
  • 021658Z AUTO 28020G24KT 10SM CLR 22/M04 A2987 RMK AO2 PK WND 26028/48 SLP066 T02181044 FZRANO $
  • 021558Z AUTO 28018G23KT 10SM CLR 20/M05 A2987 RMK AO2 SLP066 T02041047 FZRANO $

TAF TAF KCVS
Valid from the 02 at 18:00 until the 04 at 00:00 UTC


021800Z 0218/0324 25015G25KT 9999 SKC QNH2986INS
BECMG 0218/0219 25020G30KT 9999 FEW200 QNH2980INS
BECMG 0223/0224 24012G20KT 9999 FEW200 QNH2986INS
BECMG 0302/0303 28012KT 9999 SKC QNH2995INS
BECMG 0308/0309 04020G30KT 9999 SKC QNH2986INS
BECMG 0315/0316 08008KT 9999 SKC QNH3006INS TX26/0221Z TN04/0312Z



MET'MAP, your aeronautical weather chart ! - Copyright ORBIFLY December 2007 - Disclaimer

ORBIFLY MET'MAP TEAM :

Programming & Development : Alexandra Zaïnal
Concept & original design : Baudouin d'Aumeries
Assistance for programming : Marc-Olivier Méhu
Technical & hardware support : Manuel Goepfert

Contact : metmap@orbifly.com




SOURCES & CREDITS :

   NOAA       Earth
Advisory